Flight Track Log - Related Links

Times and Time Zones

All times are in EDT time to prevent confusion due to time zone crossing. See the N935SS flight status page for this flight to view local times or setup timezone preferences in your user account.


Time Position Orientation Groundspeed Altitude Reporting Facility
EDT Latitude Longitude Course Direction KTS MPH feet Rate Location/Type
Sun 12:00:12 PM 41.1000 -73.8000 61° Northeast 245 282 3,800  Level New York TRACON
Sun 12:02:15 PM 41.2164 -73.8225 352° North 275 316 11,000 2,459 Climbing Boston Center
Sun 12:03:15 PM 41.2389 -73.6822 78° East 315 362 11,300 500 Climbing Boston Center
Sun 12:04:15 PM 41.2736 -73.5503 71° East 356 410 12,000 1,050 Climbing Boston Center
Sun 12:05:00 PM 41.4903 -72.8713 61° Northeast  Level FlightAware Approximate
Sun 12:05:15 PM 41.3106 -73.4100 71° East 397 457 13,400  Level Boston Center
Sun 12:06:15 PM 41.3511 -73.2642 70° East 407 468 15,000 800 Climbing Boston Center
Sun 12:07:15 PM 41.3981 -73.1097 68° East 420 483 15,000  Level Boston Center
Sun 12:08:15 PM 41.4572 -72.9719 60° Northeast 432 497 15,000  Level Boston Center
Sun 12:09:15 PM 41.5181 -72.8339 59° Northeast 432 497 15,000  Level Boston Center
Sun 12:10:15 PM 41.5789 -72.6925 60° Northeast 437 503 15,000  Level Boston Center
Sun 12:11:15 PM 41.6417 -72.5567 58° Northeast 437 503 15,000 -212 Level Boston Center
Sun 12:12:08 PM 41.7211 -72.4653 41° Northeast 432 497 14,600 -1,438 Descending Boston Center
Sun 12:12:51 PM 41.7814 -72.3983 40° Northeast 415 478 12,700 -2,687 Descending Boston Center
Sun 12:13:15 PM 41.8189 -72.3564 40° Northeast 407 468 11,600 -1,672 Descending Boston Center
Sun 12:13:52 PM 41.8606 -72.3092 40° Northeast 371 427 11,000 -600 Descending Boston Center
Sun 12:14:15 PM 41.8958 -72.2672 42° Northeast 376 433 11,000  Level Boston Center
Sun 12:14:59 PM 41.9542 -72.2028 39° Northeast 364 419 11,000 -400 Level Boston Center
Sun 12:15:15 PM 41.9728 -72.1803 42° Northeast 359 413 10,600 -1,527 Descending Boston Center
Sun 12:15:54 PM 42.0144 -72.1300 42° Northeast 311 358 9,600 -1,500 Descending Boston Center
Sun 12:16:55 PM 42.0789 -72.0625 38° Northeast 293 337 8,100 -1,488 Descending Boston Center
Sun 12:17:55 PM 42.1347 -71.9978 41° Northeast 271 312 6,600 -1,388 Descending Boston Center
Sun 12:19:09 PM 42.2011 -71.9244 39° Northeast 245 282 5,000 -486 Descending Boston Center
Sun 12:21:00 PM 42.3000 -71.8000 43° Northeast 264 304 5,100 35 Climbing KA90
Sun 12:22:00 PM 42.3667 -71.7333 36° Northeast 267 307 5,100 -238 Level KA90
Sun 12:23:06 PM 42.4167 -71.6500 51° Northeast 271 312 4,600 -667 Descending KA90
Sun 12:24:06 PM 42.4333 -71.5667 75° East 265 305 3,700 -800 Descending KA90
Sun 12:25:06 PM 42.4500 -71.4667 77° East 267 307 3,000 -750 Descending KA90
Sun 12:26:06 PM 42.4833 -71.3667 66° East 268 308 2,200 -700 Descending KA90
Sun 12:27:06 PM 42.5000 -71.3000 71° East 230 265 1,600 -300 Descending KA90
Sun 12:28:06 PM 42.5000 -71.2167 90° East 174 200 1,600 -350 Level KA90
Sun 12:29:06 PM 42.4667 -71.2333 200° South 150 173 900 -700 Descending KA90
Sun 12:31:00 PM 42.4667 -71.2833 66° East  Level FlightAware Approximate

Login

Don't have an account? Register now (free) for customized features, flight alerts, and more!